createdAt,value
2019-05-05T00:00:11.058Z,16.2
2019-05-05T00:01:15.199Z,16.6
2019-05-05T00:02:17.061Z,16.4
2019-05-05T00:03:50.774Z,15.2
2019-05-05T00:04:54.927Z,15.3
2019-05-05T00:05:56.982Z,15.8
2019-05-05T00:06:58.847Z,15
2019-05-05T00:08:00.710Z,15.3
2019-05-05T00:09:02.575Z,15.3
2019-05-05T00:10:06.777Z,15.3
2019-05-05T00:11:08.872Z,15
2019-05-05T00:12:10.701Z,14.6
2019-05-05T00:13:27.230Z,15.7
2019-05-05T00:14:29.092Z,14.8
2019-05-05T00:15:30.954Z,15.7
2019-05-05T00:16:32.566Z,15.5
2019-05-05T00:17:36.437Z,15.1
2019-05-05T00:18:38.599Z,14.5
2019-05-05T00:19:40.654Z,15.3
2019-05-05T00:20:44.501Z,15.7
2019-05-05T00:21:46.209Z,15
2019-05-05T00:22:48.076Z,15.2
2019-05-05T00:23:49.937Z,15.8
2019-05-05T00:24:51.801Z,15.1
2019-05-05T00:25:56.356Z,14.7
2019-05-05T00:26:58.219Z,15
2019-05-05T00:28:00.269Z,15.1
2019-05-05T00:29:16.798Z,15.4
2019-05-05T00:30:18.667Z,14.9
2019-05-05T00:31:20.536Z,15.6
2019-05-05T00:32:24.280Z,15.5
2019-05-05T00:33:26.560Z,15.3
2019-05-05T00:34:28.423Z,15
2019-05-05T00:35:30.488Z,15.8
2019-05-05T00:36:47.019Z,15.4
2019-05-05T00:37:48.890Z,15.4
2019-05-05T00:39:05.428Z,15.7
2019-05-05T00:40:07.288Z,16.2
2019-05-05T00:41:09.147Z,15.8
2019-05-05T00:42:11.010Z,16.1
2019-05-05T00:43:15.182Z,15.1
2019-05-05T00:44:17.047Z,15.9
2019-05-05T00:45:18.906Z,15.6
2019-05-05T00:46:20.786Z,16
2019-05-05T00:47:22.371Z,16
2019-05-05T00:48:26.436Z,15.7
2019-05-05T00:49:49.351Z,16.5
2019-05-05T00:50:52.918Z,15.9
2019-05-05T00:51:57.014Z,15.3
2019-05-05T00:52:58.598Z,16.4
2019-05-05T00:54:00.470Z,16.4
2019-05-05T00:55:01.996Z,15.5
2019-05-05T00:56:06.248Z,15.9
2019-05-05T00:57:08.300Z,16.1
2019-05-05T00:58:10.160Z,15.1
2019-05-05T00:59:12.023Z,15.5
2019-05-05T01:00:16.237Z,15.8
2019-05-05T01:01:18.100Z,15.9
2019-05-05T01:02:19.872Z,16.3
2019-05-05T01:03:21.736Z,16
2019-05-05T01:04:25.069Z,16.8
2019-05-05T01:05:26.943Z,17
2019-05-05T01:06:28.817Z,16.1
2019-05-05T01:07:30.410Z,16.5
2019-05-05T01:08:32.623Z,16.8
2019-05-05T01:09:36.665Z,16.1
2019-05-05T01:10:37.974Z,15.4
2019-05-05T01:11:39.558Z,15.8
2019-05-05T01:12:41.804Z,15.2
2019-05-05T01:13:45.953Z,16.5
2019-05-05T01:14:47.816Z,16.1
2019-05-05T01:15:49.687Z,15.1
2019-05-05T01:16:51.547Z,15.2
2019-05-05T01:17:55.747Z,14.8
2019-05-05T01:18:57.602Z,14.8
2019-05-05T01:20:07.458Z,15.7
2019-05-05T01:21:09.515Z,15
2019-05-05T01:22:11.384Z,15.7
2019-05-05T01:23:14.821Z,15.4
2019-05-05T01:24:16.549Z,16.1
2019-05-05T01:25:18.138Z,15.4
2019-05-05T01:26:19.720Z,15.7
2019-05-05T01:27:21.330Z,15.7
2019-05-05T01:28:24.668Z,15.4
2019-05-05T01:29:26.732Z,15.7
2019-05-05T01:30:28.596Z,15.8
2019-05-05T01:31:30.467Z,15
2019-05-05T01:32:32.542Z,15.9
2019-05-05T01:33:51.193Z,15.4
2019-05-05T01:34:55.427Z,15.6
2019-05-05T01:35:57.688Z,15.2
2019-05-05T01:37:31.412Z,15.9
2019-05-05T01:38:35.161Z,15.7
2019-05-05T01:39:36.922Z,16.8
2019-05-05T01:40:54.728Z,16.6
2019-05-05T01:41:56.656Z,16.2
2019-05-05T01:42:58.521Z,15.8
2019-05-05T01:44:00.380Z,15.9
2019-05-05T01:45:04.316Z,16.1
2019-05-05T01:46:06.342Z,16.6
2019-05-05T01:47:08.204Z,15.9
2019-05-05T01:48:10.063Z,16.9
2019-05-05T01:49:11.932Z,15.8
2019-05-05T01:50:24.248Z,16.9
2019-05-05T01:51:26.350Z,16.6
2019-05-05T01:52:28.212Z,17
2019-05-05T01:53:30.089Z,17.3
2019-05-05T01:54:31.955Z,17.4
2019-05-05T01:55:35.734Z,18.4
2019-05-05T01:56:37.791Z,17.3
2019-05-05T01:57:39.651Z,17.4
2019-05-05T01:58:41.710Z,16.9
2019-05-05T01:59:45.904Z,17.4
2019-05-05T02:00:47.765Z,17.2
2019-05-05T02:01:49.772Z,17.2
2019-05-05T02:02:51.644Z,17.6
2019-05-05T02:03:55.795Z,17.2
2019-05-05T02:04:57.582Z,17.4
2019-05-05T02:05:59.439Z,17
2019-05-05T02:07:01.304Z,16.9
2019-05-05T02:08:05.361Z,16.9
2019-05-05T02:09:07.226Z,16.8
2019-05-05T02:10:09.086Z,16.2
2019-05-05T02:11:10.945Z,17.5
2019-05-05T02:12:12.816Z,16.8
2019-05-05T02:13:17.171Z,16.3
2019-05-05T02:14:19.032Z,17
2019-05-05T02:15:20.891Z,16.6
2019-05-05T02:16:22.759Z,17.1
2019-05-05T02:17:26.674Z,16.9
2019-05-05T02:18:28.543Z,16.1
2019-05-05T02:19:30.178Z,17.4
2019-05-05T02:20:34.135Z,16.9
2019-05-05T02:21:36.447Z,17.8
2019-05-05T02:22:38.309Z,17.6
2019-05-05T02:23:39.891Z,16.5
2019-05-05T02:24:41.758Z,17.5
2019-05-05T02:25:45.804Z,16.8
2019-05-05T02:26:47.839Z,17.3
2019-05-05T02:27:49.721Z,17.4
2019-05-05T02:29:06.452Z,16.7
2019-05-05T02:30:07.752Z,17.2
2019-05-05T02:31:09.622Z,17.2
2019-05-05T02:32:11.201Z,16.5
2019-05-05T02:33:16.105Z,17.5
2019-05-05T02:34:17.972Z,17.2
2019-05-05T02:35:19.834Z,17.5
2019-05-05T02:36:21.416Z,17
2019-05-05T02:37:26.587Z,17.8
2019-05-05T02:38:28.172Z,17.6
2019-05-05T02:40:07.332Z,17.1
2019-05-05T02:41:09.472Z,17.7
2019-05-05T02:42:11.334Z,17.1
2019-05-05T02:43:16.229Z,17.4
2019-05-05T02:44:18.003Z,17.8
2019-05-05T02:45:19.862Z,18.3
2019-05-05T02:46:36.389Z,18.4
2019-05-05T02:47:38.254Z,17.5
2019-05-05T02:48:55.300Z,17.8
2019-05-05T02:49:57.228Z,18.6
2019-05-05T02:51:07.493Z,17.3
2019-05-05T02:52:09.574Z,17.2
2019-05-05T02:53:11.444Z,17.2
2019-05-05T02:54:14.687Z,17.9
2019-05-05T02:55:16.549Z,16.9
2019-05-05T02:56:18.153Z,17.3
2019-05-05T02:57:20.211Z,17.3
2019-05-05T02:58:21.772Z,16.6
2019-05-05T02:59:25.840Z,16.9
2019-05-05T03:00:27.886Z,17.3
2019-05-05T03:01:29.746Z,17.5
2019-05-05T03:02:31.796Z,17.3
2019-05-05T03:03:35.317Z,17.8
2019-05-05T03:04:37.179Z,17.2
2019-05-05T03:05:39.046Z,17.5
2019-05-05T03:06:40.905Z,17.8
2019-05-05T03:07:45.061Z,17.9
2019-05-05T03:08:46.925Z,19
2019-05-05T03:09:48.788Z,19.3
2019-05-05T03:10:50.649Z,19.1
2019-05-05T03:11:54.716Z,18.7
2019-05-05T03:12:56.302Z,18.7
2019-05-05T03:13:58.167Z,19.2
2019-05-05T03:15:00.028Z,18.8
2019-05-05T03:16:03.568Z,18.8
2019-05-05T03:17:05.620Z,18.6
2019-05-05T03:18:07.481Z,19.4
2019-05-05T03:19:09.068Z,19.7
2019-05-05T03:20:11.115Z,18.6
2019-05-05T03:21:14.893Z,18.1
2019-05-05T03:22:16.755Z,18.9
2019-05-05T03:23:18.796Z,19
2019-05-05T03:24:20.655Z,18.6
2019-05-05T03:25:24.603Z,18.5
2019-05-05T03:26:26.465Z,18.7
2019-05-05T03:27:28.058Z,18.4
2019-05-05T03:28:30.067Z,19
2019-05-05T03:29:34.119Z,18.3
2019-05-05T03:30:36.704Z,18.6
2019-05-05T03:31:38.578Z,18.5
2019-05-05T03:32:40.440Z,19.4
2019-05-05T03:33:45.439Z,19.1
2019-05-05T03:34:47.724Z,18.9
2019-05-05T03:35:49.586Z,19.5
2019-05-05T03:36:53.392Z,19.1
2019-05-05T03:37:55.516Z,19.3
2019-05-05T03:38:57.379Z,18.7
2019-05-05T03:39:59.436Z,19.5
2019-05-05T03:41:03.413Z,19
2019-05-05T03:42:05.420Z,19
2019-05-05T03:43:07.281Z,19.6
2019-05-05T03:44:09.195Z,19.3
2019-05-05T03:45:11.075Z,19.7
2019-05-05T03:46:14.550Z,18.5
2019-05-05T03:47:16.136Z,18.9
2019-05-05T03:48:18.000Z,19.4
2019-05-05T03:49:19.864Z,18.4
2019-05-05T03:50:23.250Z,20
2019-05-05T03:51:25.608Z,19.6
2019-05-05T03:52:27.665Z,19.1
2019-05-05T03:53:29.449Z,19.4
2019-05-05T03:54:31.311Z,19.1
2019-05-05T03:55:34.986Z,19.1
2019-05-05T03:56:36.289Z,18.9
2019-05-05T03:57:38.151Z,18.9
2019-05-05T03:58:40.014Z,19.6
2019-05-05T03:59:44.033Z,19.4
2019-05-05T04:00:46.097Z,19
2019-05-05T04:01:47.958Z,19
2019-05-05T04:02:49.819Z,18.9
2019-05-05T04:03:51.407Z,18.6
2019-05-05T04:04:56.086Z,18.9
2019-05-05T04:05:57.957Z,18.9
2019-05-05T04:07:00.016Z,18.4
2019-05-05T04:08:04.378Z,18.5
2019-05-05T04:09:06.238Z,18.5
2019-05-05T04:10:07.823Z,19.8
2019-05-05T04:11:09.684Z,20
2019-05-05T04:12:13.479Z,19.6
2019-05-05T04:13:15.305Z,20.5
2019-05-05T04:14:19.804Z,21
2019-05-05T04:15:21.666Z,21
2019-05-05T04:16:25.591Z,19
2019-05-05T04:17:27.364Z,20.5
2019-05-05T04:18:28.936Z,20.4
2019-05-05T04:19:45.464Z,20.4
2019-05-05T04:20:47.041Z,20.5
2019-05-05T04:21:48.904Z,20.4
2019-05-05T04:22:50.768Z,19.7
2019-05-05T04:23:54.539Z,20.4
2019-05-05T04:24:56.401Z,20.5
2019-05-05T04:25:58.262Z,21.1
2019-05-05T04:27:00.125Z,21.6
2019-05-05T04:28:04.144Z,20.7
2019-05-05T04:29:06.513Z,21.3
2019-05-05T04:30:08.393Z,20.8
2019-05-05T04:31:09.962Z,21.5
2019-05-05T04:32:13.400Z,20.9
2019-05-05T04:33:15.239Z,21.1
2019-05-05T04:34:17.105Z,20.6
2019-05-05T04:35:18.962Z,21
2019-05-05T04:36:21.018Z,21.2
2019-05-05T04:37:25.057Z,20.9
2019-05-05T04:38:26.920Z,20.2
2019-05-05T04:39:28.795Z,20.8
2019-05-05T04:40:30.618Z,20.4
2019-05-05T04:41:34.690Z,21
2019-05-05T04:42:36.553Z,20.4
2019-05-05T04:43:38.413Z,20.5
2019-05-05T04:44:39.988Z,21.3
2019-05-05T04:45:44.088Z,21.4
2019-05-05T04:46:45.949Z,20.7
2019-05-05T04:47:47.810Z,20
2019-05-05T04:48:49.862Z,21.9
2019-05-05T04:49:53.625Z,21.3
2019-05-05T04:50:55.622Z,20.1
2019-05-05T04:51:57.494Z,21.2
2019-05-05T04:52:59.569Z,20.9
2019-05-05T04:54:03.554Z,21.2
2019-05-05T04:55:05.601Z,20.9
2019-05-05T04:56:07.184Z,20.9
2019-05-05T04:57:09.046Z,20.7
2019-05-05T04:58:10.909Z,21.3
2019-05-05T04:59:15.475Z,20.7
2019-05-05T05:00:17.049Z,21.8
2019-05-05T05:01:18.951Z,20.2
2019-05-05T05:02:20.792Z,21
2019-05-05T05:03:24.611Z,20.5
2019-05-05T05:04:26.473Z,19.8
2019-05-05T05:05:44.697Z,19.8
2019-05-05T05:06:46.562Z,20.9
2019-05-05T05:08:03.683Z,21.4
2019-05-05T05:09:05.848Z,21.4
2019-05-05T05:10:07.709Z,21
2019-05-05T05:11:09.756Z,22.1
2019-05-05T05:12:11.615Z,21
2019-05-05T05:13:14.910Z,20.7
2019-05-05T05:14:16.786Z,21.6
2019-05-05T05:15:18.359Z,20.6
2019-05-05T05:16:19.944Z,20.4
2019-05-05T05:17:21.803Z,20.5
2019-05-05T05:18:25.112Z,20.7
2019-05-05T05:19:26.962Z,20.2
2019-05-05T05:20:28.547Z,20.3
2019-05-05T05:22:04.802Z,20
2019-05-05T05:23:07.009Z,21.1
2019-05-05T05:24:09.099Z,19.7
2019-05-05T05:25:10.960Z,20.4
2019-05-05T05:26:15.043Z,19.8
2019-05-05T05:27:16.908Z,20.2
2019-05-05T05:28:18.777Z,21.6
2019-05-05T05:29:20.364Z,22
2019-05-05T05:30:24.020Z,21.3
2019-05-05T05:31:26.252Z,20.3
2019-05-05T05:32:28.113Z,20.1
2019-05-05T05:33:29.985Z,19.6
2019-05-05T05:34:33.852Z,19.8
2019-05-05T05:35:36.016Z,19.4
2019-05-05T05:36:37.880Z,20.1
2019-05-05T05:37:39.742Z,19.1
2019-05-05T05:38:43.552Z,20.2
2019-05-05T05:39:45.550Z,19.2
2019-05-05T05:40:47.604Z,19.5
2019-05-05T05:41:49.476Z,18.8
2019-05-05T05:42:51.250Z,19.7
2019-05-05T05:44:07.486Z,19.9
2019-05-05T05:45:09.099Z,19.6
2019-05-05T05:46:10.957Z,19.1
2019-05-05T05:47:15.144Z,19.4
2019-05-05T05:48:16.999Z,18.5
2019-05-05T05:49:18.860Z,19.1
2019-05-05T05:50:20.157Z,18.3
2019-05-05T05:51:24.269Z,18.9
2019-05-05T05:52:25.577Z,18
2019-05-05T05:53:27.440Z,18
2019-05-05T05:54:29.299Z,18.5
2019-05-05T05:55:30.594Z,17.7
2019-05-05T05:56:34.730Z,17.6
2019-05-05T05:57:36.341Z,17.5
2019-05-05T05:58:38.213Z,17
2019-05-05T05:59:39.513Z,17.7
2019-05-05T06:00:45.020Z,18
2019-05-05T06:01:47.226Z,17
2019-05-05T06:02:48.996Z,17.4
2019-05-05T06:03:51.056Z,17.1
2019-05-05T06:04:54.716Z,17.9
2019-05-05T06:05:56.580Z,16.9
2019-05-05T06:06:58.447Z,17.6
2019-05-05T06:08:00.318Z,16.8
2019-05-05T06:09:04.150Z,17.1
2019-05-05T06:10:06.138Z,16.7
2019-05-05T06:12:40.287Z,17.1
2019-05-05T06:13:43.990Z,17.1
2019-05-05T06:14:48.878Z,17.8
2019-05-05T06:15:50.745Z,16.7
2019-05-05T06:16:54.495Z,17.9
2019-05-05T06:17:56.357Z,16.3
2019-05-05T06:18:58.218Z,17.9
2019-05-05T06:20:00.080Z,16.4
2019-05-05T06:21:04.278Z,16.6
2019-05-05T06:22:06.265Z,16.5
2019-05-05T06:23:08.127Z,17.3
2019-05-05T06:24:09.994Z,17.9
2019-05-05T06:25:15.461Z,18.3
2019-05-05T06:26:17.962Z,17.4
2019-05-05T06:27:19.831Z,16.5
2019-05-05T06:28:23.534Z,17.5
2019-05-05T06:29:25.297Z,17.4
2019-05-05T06:30:27.388Z,17.4
2019-05-05T06:31:29.248Z,17.2
2019-05-05T06:32:30.559Z,17.6
2019-05-05T06:33:34.478Z,17.8
2019-05-05T06:34:36.540Z,18.2
2019-05-05T06:35:38.314Z,18.6
2019-05-05T06:36:39.899Z,18.1
2019-05-05T06:37:43.580Z,18.7
2019-05-05T06:38:48.118Z,17.4
2019-05-05T06:39:49.989Z,17.1
2019-05-05T06:40:53.695Z,16.6
2019-05-05T06:41:55.628Z,16.6
2019-05-05T06:42:57.491Z,16.4
2019-05-05T06:43:59.360Z,16.8
2019-05-05T06:45:01.221Z,16.9
2019-05-05T06:46:05.002Z,17.2
2019-05-05T06:47:06.993Z,16.9
2019-05-05T06:48:08.579Z,16.9
2019-05-05T06:49:10.449Z,17.4
2019-05-05T06:50:14.436Z,16.9
2019-05-05T06:51:16.481Z,16.3
2019-05-05T06:52:18.310Z,17.5
2019-05-05T06:53:20.102Z,16.6
2019-05-05T06:54:23.839Z,16.7
2019-05-05T06:55:25.714Z,15.2
2019-05-05T06:56:27.293Z,14.9
2019-05-05T06:57:29.349Z,14.8
2019-05-05T06:58:45.877Z,14.9
2019-05-05T06:59:47.742Z,15.4
2019-05-05T07:00:49.616Z,15.2
2019-05-05T07:01:53.383Z,14.8
2019-05-05T07:02:56.084Z,15
2019-05-05T07:03:57.946Z,15
2019-05-05T07:04:59.536Z,15
2019-05-05T07:06:01.386Z,15.4
2019-05-05T07:07:06.251Z,14.1
2019-05-05T07:08:08.118Z,14.2
2019-05-05T07:09:09.979Z,14.7
2019-05-05T07:10:26.495Z,14
2019-05-05T07:11:28.389Z,14.2
2019-05-05T07:12:30.454Z,14.7
2019-05-05T07:13:34.510Z,13.4
2019-05-05T07:14:36.449Z,13.9
2019-05-05T07:15:38.315Z,14.4
2019-05-05T07:16:40.181Z,14
2019-05-05T07:17:44.037Z,14.3
2019-05-05T07:18:46.099Z,14.9
2019-05-05T07:19:47.963Z,14.2
2019-05-05T07:20:49.550Z,14.6
2019-05-05T07:21:51.133Z,13.6
2019-05-05T07:23:05.793Z,13.8
2019-05-05T07:24:07.654Z,14.2
2019-05-05T07:25:09.257Z,14.3
2019-05-05T07:26:11.115Z,13.8
2019-05-05T07:27:14.938Z,13.7
2019-05-05T07:28:16.829Z,14.5
2019-05-05T07:29:35.068Z,14
2019-05-05T07:30:36.367Z,14.8
2019-05-05T07:31:38.233Z,15.1
2019-05-05T07:32:40.097Z,14.4
2019-05-05T07:33:44.293Z,14.4
2019-05-05T07:34:46.348Z,14
2019-05-05T07:36:05.987Z,14.4
2019-05-05T07:37:07.914Z,14.5
2019-05-05T07:38:24.684Z,15
2019-05-05T07:39:26.553Z,14
2019-05-05T07:40:28.138Z,14.8
2019-05-05T07:41:29.730Z,14.6
2019-05-05T07:42:33.355Z,14
2019-05-05T07:43:35.431Z,15.5
2019-05-05T07:44:37.150Z,15.5
2019-05-05T07:45:39.013Z,15.6
2019-05-05T07:46:40.878Z,15.2
2019-05-05T07:47:47.835Z,14.6
2019-05-05T07:48:49.699Z,14.4
2019-05-05T07:49:54.029Z,14.6
2019-05-05T07:51:05.639Z,14.3
2019-05-05T07:52:07.526Z,14.1
2019-05-05T07:53:18.474Z,14.5
2019-05-05T07:54:20.338Z,14.2
2019-05-05T07:55:24.282Z,13.9
2019-05-05T07:56:26.144Z,15
2019-05-05T07:57:28.018Z,13.7
2019-05-05T07:58:29.597Z,13.3
2019-05-05T07:59:31.461Z,14.3
2019-05-05T08:00:35.198Z,14.1
2019-05-05T08:01:37.065Z,13.9
2019-05-05T08:02:38.649Z,14.4
2019-05-05T08:03:39.961Z,13.4
2019-05-05T08:04:43.559Z,13.9
2019-05-05T08:05:45.778Z,14.2
2019-05-05T08:06:47.643Z,13.9
2019-05-05T08:07:49.509Z,13.4
2019-05-05T08:08:51.371Z,13.4
2019-05-05T08:09:54.802Z,13
2019-05-05T08:10:56.657Z,13.9
2019-05-05T08:11:58.708Z,14.6
2019-05-05T08:13:00.498Z,13.6
2019-05-05T08:14:04.526Z,14.3
2019-05-05T08:15:06.388Z,14.1
2019-05-05T08:16:07.698Z,13.7
2019-05-05T08:17:09.572Z,14.1
2019-05-05T08:18:13.639Z,13.5
2019-05-05T08:19:30.402Z,13.5
2019-05-05T08:20:34.384Z,13.3
2019-05-05T08:21:35.681Z,14
2019-05-05T08:22:37.569Z,13
2019-05-05T08:23:39.659Z,13.6
2019-05-05T08:24:41.521Z,13.8
2019-05-05T08:25:46.406Z,13.7
2019-05-05T08:26:48.358Z,14.2
2019-05-05T08:27:50.268Z,13.6
2019-05-05T08:28:53.544Z,13.9
2019-05-05T08:29:55.833Z,14.5
2019-05-05T08:30:57.696Z,14
2019-05-05T08:31:59.752Z,13.9
2019-05-05T08:33:01.616Z,12.9
2019-05-05T08:34:04.857Z,13.2
2019-05-05T08:35:06.723Z,14.3
2019-05-05T08:36:08.020Z,14.1
2019-05-05T08:37:10.081Z,13.3
2019-05-05T08:38:14.249Z,13.8
2019-05-05T08:39:16.113Z,13.4
2019-05-05T08:40:17.908Z,13
2019-05-05T08:41:19.772Z,14.4
2019-05-05T08:42:21.644Z,13.6
2019-05-05T08:43:25.219Z,14
2019-05-05T08:44:27.096Z,14.1
2019-05-05T08:45:28.989Z,14.6
2019-05-05T08:46:30.823Z,13.7
2019-05-05T08:47:34.735Z,13.7
2019-05-05T08:48:35.754Z,14.8
2019-05-05T08:49:37.616Z,13.8
2019-05-05T08:50:39.482Z,14.4
2019-05-05T08:51:41.343Z,14
2019-05-05T08:52:57.869Z,14.3
2019-05-05T08:53:59.733Z,14.3
2019-05-05T08:55:01.318Z,13.6
2019-05-05T08:56:17.837Z,13.6
2019-05-05T08:58:35.664Z,13.6
2019-05-05T08:59:37.726Z,13.5
2019-05-05T09:00:39.780Z,14.3
2019-05-05T09:01:41.643Z,13.9
2019-05-05T09:02:44.787Z,12.9
2019-05-05T09:03:46.647Z,14.8
2019-05-05T09:04:48.506Z,14.4
2019-05-05T09:05:50.088Z,13.8
2019-05-05T09:06:54.199Z,13.6
2019-05-05T09:08:10.833Z,13.5
2019-05-05T09:09:15.588Z,13.8
2019-05-05T09:10:17.173Z,14.6
2019-05-05T09:11:18.471Z,13.3
2019-05-05T09:12:20.331Z,14
2019-05-05T09:13:21.918Z,14.3
2019-05-05T09:14:25.996Z,14.2
2019-05-05T09:15:27.858Z,14.9
2019-05-05T09:16:29.721Z,14.3
2019-05-05T09:17:33.170Z,15.5
2019-05-05T09:18:35.453Z,14.9
2019-05-05T09:19:37.029Z,14.4
2019-05-05T09:20:38.616Z,14.1
2019-05-05T09:21:40.481Z,13.9
2019-05-05T09:22:42.067Z,14.9
2019-05-05T09:24:05.340Z,14.4
2019-05-05T09:27:41.519Z,13
2019-05-05T09:28:45.645Z,14.1
2019-05-05T09:29:47.508Z,13.3
2019-05-05T09:30:49.569Z,13.5
2019-05-05T09:31:51.151Z,14.7
2019-05-05T09:32:55.411Z,13.8
2019-05-05T09:33:57.276Z,14
2019-05-05T09:34:59.327Z,14.6
2019-05-05T09:36:01.191Z,14
2019-05-05T09:37:04.695Z,13.8
2019-05-05T09:38:06.277Z,13.9
2019-05-05T09:39:07.903Z,13.2
2019-05-05T09:40:09.996Z,12.5
2019-05-05T09:41:11.863Z,13.8
2019-05-05T09:42:15.453Z,12.6
2019-05-05T09:43:17.320Z,12.5
2019-05-05T09:44:18.908Z,12.5
2019-05-05T09:45:20.702Z,12.7
2019-05-05T09:46:24.529Z,13.1
2019-05-05T09:47:26.735Z,12.9
2019-05-05T09:48:28.334Z,13.4
2019-05-05T09:49:29.921Z,12.3
2019-05-05T09:50:31.784Z,12.2
2019-05-05T09:51:35.963Z,12.1
2019-05-05T09:52:37.828Z,12.6
2019-05-05T09:53:39.692Z,12.5
2019-05-05T09:54:43.609Z,12.4
2019-05-05T09:55:45.661Z,12.7
2019-05-05T09:58:06.371Z,12.3
2019-05-05T09:59:07.684Z,13.1
2019-05-05T10:00:09.550Z,13.6
2019-05-05T10:01:11.412Z,12.4
2019-05-05T10:02:15.422Z,13.2
2019-05-05T10:03:16.718Z,13.7
2019-05-05T10:04:18.588Z,13.9
2019-05-05T10:05:20.453Z,14.4
2019-05-05T10:06:24.211Z,14.8
2019-05-05T10:07:26.236Z,14.3
2019-05-05T10:08:28.104Z,14.3
2019-05-05T10:09:30.156Z,14.3
2019-05-05T10:10:34.440Z,14.5
2019-05-05T10:11:36.512Z,14.2
2019-05-05T10:12:37.831Z,14.2
2019-05-05T10:13:39.691Z,14.8
2019-05-05T10:14:41.557Z,13.9
2019-05-05T10:15:45.383Z,14.3
2019-05-05T10:16:47.253Z,13.8
2019-05-05T10:17:49.117Z,14.4
2019-05-05T10:18:50.984Z,13.4
2019-05-05T10:19:55.118Z,12.6
2019-05-05T10:20:56.983Z,13.6
2019-05-05T10:21:58.849Z,13.1
2019-05-05T10:23:00.910Z,13
2019-05-05T10:24:05.025Z,12.4
2019-05-05T10:25:07.090Z,12.2
2019-05-05T10:26:08.957Z,13.1
2019-05-05T10:27:10.823Z,12.8
2019-05-05T10:28:14.547Z,13
2019-05-05T10:29:16.553Z,12.5
2019-05-05T10:30:18.422Z,14
2019-05-05T10:31:20.476Z,13.7
2019-05-05T10:32:24.261Z,13.4
2019-05-05T10:33:26.329Z,13.3
2019-05-05T10:34:28.462Z,12.9
2019-05-05T10:35:30.324Z,12.8
2019-05-05T10:36:33.672Z,12.3
2019-05-05T10:37:35.803Z,13.4
2019-05-05T10:38:37.667Z,12.6
2019-05-05T10:39:39.540Z,12.8
2019-05-05T10:40:41.405Z,12.4
2019-05-05T10:41:45.109Z,13
2019-05-05T10:42:47.160Z,13.7
2019-05-05T10:43:49.020Z,14.8
2019-05-05T10:44:50.895Z,14.5
2019-05-05T10:45:55.166Z,15.2
2019-05-05T10:46:57.024Z,16.1
2019-05-05T10:47:58.320Z,16.6
2019-05-05T10:49:00.913Z,16.4
2019-05-05T10:50:04.842Z,16.9
2019-05-05T10:51:06.583Z,15.4
2019-05-05T10:52:08.446Z,16.3
2019-05-05T10:53:10.309Z,15.5
2019-05-05T10:54:14.079Z,16.2
2019-05-05T10:55:16.050Z,15.6
2019-05-05T10:56:17.634Z,16.2
2019-05-05T10:57:19.599Z,15.4
2019-05-05T10:58:21.450Z,15.6
2019-05-05T10:59:24.842Z,16
2019-05-05T11:00:26.855Z,15.8
2019-05-05T11:01:28.445Z,16
2019-05-05T11:02:30.308Z,15.1
2019-05-05T11:03:34.061Z,15.4
2019-05-05T11:04:36.372Z,15.4
2019-05-05T11:05:38.236Z,15.8
2019-05-05T11:06:40.148Z,14.8
2019-05-05T11:07:42.041Z,14.3
2019-05-05T11:08:46.057Z,15.5
2019-05-05T11:09:48.112Z,15.1
2019-05-05T11:10:49.978Z,14.5
2019-05-05T11:11:51.845Z,15.2
2019-05-05T11:12:54.505Z,14.7
2019-05-05T11:13:56.360Z,14.6
2019-05-05T11:14:58.221Z,14.9
2019-05-05T11:16:00.082Z,15.3
2019-05-05T11:17:04.575Z,14.7
2019-05-05T11:18:06.451Z,14.3
2019-05-05T11:19:08.032Z,14.5
2019-05-05T11:20:10.285Z,14.3
2019-05-05T11:21:14.421Z,14.4
2019-05-05T11:22:16.353Z,14.4
2019-05-05T11:23:18.218Z,14.5
2019-05-05T11:24:19.806Z,13.4
2019-05-05T11:25:21.682Z,13.4
2019-05-05T11:26:25.723Z,13.4
2019-05-05T11:27:27.584Z,14
2019-05-05T11:28:29.698Z,14.7
2019-05-05T11:29:31.321Z,13.8
2019-05-05T11:30:34.988Z,14.6
2019-05-05T11:31:36.862Z,13.9
2019-05-05T11:32:38.728Z,13.9
2019-05-05T11:33:40.599Z,13.4
2019-05-05T11:34:44.107Z,12.6
2019-05-05T11:35:46.300Z,12.9
2019-05-05T11:36:47.601Z,12.4
2019-05-05T11:37:49.471Z,13.3
2019-05-05T11:38:51.059Z,12.7
2019-05-05T11:39:55.273Z,13
2019-05-05T11:40:57.138Z,13.7
2019-05-05T11:41:58.728Z,12.3
2019-05-05T11:43:00.306Z,12.4
2019-05-05T11:44:04.499Z,12.8
2019-05-05T11:45:06.086Z,12.1
2019-05-05T11:46:07.962Z,12.9
2019-05-05T11:47:09.829Z,11.9
2019-05-05T11:48:11.694Z,12.6
2019-05-05T11:49:15.887Z,12.4
2019-05-05T11:50:17.754Z,12.8
2019-05-05T11:51:19.347Z,12.8
2019-05-05T11:52:21.212Z,12.9
2019-05-05T11:53:37.748Z,12.4
2019-05-05T11:54:39.614Z,12.1
2019-05-05T11:55:41.480Z,12.7
2019-05-05T11:56:45.796Z,12.4
2019-05-05T11:57:47.663Z,12.6
2019-05-05T11:58:49.529Z,12.2
2019-05-05T11:59:53.725Z,13.1
2019-05-05T12:00:55.876Z,13.3
2019-05-05T12:01:57.933Z,13.9
2019-05-05T12:02:59.522Z,13.1
2019-05-05T12:04:01.099Z,13.3
2019-05-05T12:05:04.527Z,13.5
2019-05-05T12:06:06.481Z,13.9
2019-05-05T12:07:08.073Z,14.5
2019-05-05T12:08:09.938Z,13.2
2019-05-05T12:09:13.864Z,13.8
2019-05-05T12:10:15.253Z,13.1
2019-05-05T12:11:17.119Z,13.4
2019-05-05T12:12:18.715Z,13.9
2019-05-05T12:13:20.301Z,12.9
2019-05-05T12:14:27.792Z,12.8
2019-05-05T12:15:29.957Z,13.8
2019-05-05T12:16:31.822Z,13.1
2019-05-05T12:17:36.028Z,12.6
2019-05-05T12:18:37.794Z,12.5
2019-05-05T12:19:39.868Z,12.2
2019-05-05T12:20:56.387Z,12.8
2019-05-05T12:21:58.174Z,12.7
2019-05-05T12:23:00.249Z,12.6
2019-05-05T12:24:04.329Z,13.1
2019-05-05T12:25:06.193Z,12.6
2019-05-05T12:26:08.250Z,13.6
2019-05-05T12:27:10.114Z,12.8
2019-05-05T12:28:14.174Z,13.1
2019-05-05T12:29:15.470Z,12.5
2019-05-05T12:30:17.339Z,12.9
2019-05-05T12:31:19.205Z,13.1
2019-05-05T12:32:35.844Z,12.3
2019-05-05T12:33:37.707Z,12.6
2019-05-05T12:34:39.576Z,13.2
2019-05-05T12:35:40.886Z,12
2019-05-05T12:36:44.355Z,13.3
2019-05-05T12:37:46.367Z,12.4
2019-05-05T12:38:48.415Z,12.7
2019-05-05T12:39:50.280Z,13
2019-05-05T12:40:54.016Z,13.4
2019-05-05T12:41:55.878Z,12.6
2019-05-05T12:42:57.890Z,13.2
2019-05-05T12:43:59.942Z,12.9
2019-05-05T12:45:01.812Z,11.3
2019-05-05T12:46:06.082Z,11.7
2019-05-05T12:47:07.977Z,12.6
2019-05-05T12:48:09.842Z,12.2
2019-05-05T12:49:13.659Z,12.4
2019-05-05T12:50:15.109Z,12.8
2019-05-05T12:51:16.972Z,12.1
2019-05-05T12:52:18.840Z,11.1
2019-05-05T12:53:20.893Z,11.1
2019-05-05T12:54:25.035Z,11.2
2019-05-05T12:55:44.466Z,11.8
2019-05-05T12:56:46.447Z,11
2019-05-05T12:57:48.320Z,10.8
2019-05-05T12:58:50.187Z,11.1
2019-05-05T12:59:54.143Z,11
2019-05-05T13:01:10.684Z,11.3
2019-05-05T13:02:14.763Z,10.7
2019-05-05T13:03:16.349Z,10.8
2019-05-05T13:04:18.214Z,10.7
2019-05-05T13:05:20.081Z,10
2019-05-05T13:06:23.768Z,10.6
2019-05-05T13:07:25.809Z,10.8
2019-05-05T13:08:27.674Z,10.3
2019-05-05T13:09:29.539Z,10.5
2019-05-05T13:10:31.127Z,11.4
2019-05-05T13:11:35.397Z,10.9
2019-05-05T13:12:37.256Z,10.7
2019-05-05T13:14:56.053Z,10.3
2019-05-05T13:15:57.920Z,10.3
2019-05-05T13:16:59.496Z,10.6
2019-05-05T13:18:01.087Z,9.9
2019-05-05T13:19:05.540Z,10
2019-05-05T13:20:07.422Z,10.3
2019-05-05T13:21:09.213Z,10
2019-05-05T13:22:11.079Z,10.6
2019-05-05T13:23:14.993Z,10.7
2019-05-05T13:24:16.584Z,10.9
2019-05-05T13:25:18.448Z,11.5
2019-05-05T13:26:20.041Z,10.3
2019-05-05T13:27:36.573Z,11.8
2019-05-05T13:28:38.635Z,10.9
2019-05-05T13:29:40.503Z,10.6
2019-05-05T13:30:44.445Z,11.1
2019-05-05T13:31:46.306Z,11
2019-05-05T13:32:48.098Z,11.4
2019-05-05T13:33:50.056Z,11.1
2019-05-05T13:34:51.919Z,11.4
2019-05-05T13:35:55.850Z,10.8
2019-05-05T13:36:57.714Z,10.5
2019-05-05T13:37:59.585Z,10.8
2019-05-05T13:39:01.450Z,9.7
2019-05-05T13:40:05.759Z,10.4
2019-05-05T13:41:07.342Z,10
2019-05-05T13:42:09.421Z,10.4
2019-05-05T13:43:11.297Z,9.7
2019-05-05T13:44:15.467Z,10
2019-05-05T13:45:17.534Z,9.6
2019-05-05T13:46:19.109Z,9.5
2019-05-05T13:47:20.979Z,10.4
2019-05-05T13:48:23.061Z,9.5
2019-05-05T13:49:25.073Z,11
2019-05-05T13:50:27.125Z,10.1
2019-05-05T13:51:28.996Z,11.1
2019-05-05T13:52:30.582Z,10.8
2019-05-05T13:53:34.752Z,10.5
2019-05-05T13:54:36.614Z,10.4
2019-05-05T13:55:38.479Z,10.9
2019-05-05T13:56:40.353Z,10.6
2019-05-05T13:57:44.236Z,10.9
2019-05-05T13:58:45.970Z,11.1
2019-05-05T13:59:47.834Z,10.2
2019-05-05T14:00:49.132Z,10.7
2019-05-05T14:01:50.998Z,10.6
2019-05-05T14:02:54.968Z,10.7
2019-05-05T14:03:58.697Z,10.9
2019-05-05T14:05:00.563Z,11.2
2019-05-05T14:06:04.492Z,10.8
2019-05-05T14:07:06.591Z,10.7
2019-05-05T14:08:08.665Z,11
2019-05-05T14:09:10.243Z,11
2019-05-05T14:10:14.166Z,10.5
2019-05-05T14:11:16.422Z,11.2
2019-05-05T14:12:18.668Z,11.9
2019-05-05T14:13:20.532Z,10.9
2019-05-05T14:14:24.748Z,11.5